createdAt,value
2023-02-03T00:01:32.981Z,10.40
2023-02-03T00:04:03.381Z,10.40
2023-02-03T00:06:37.599Z,10.40
2023-02-03T00:09:08.118Z,10.40
2023-02-03T00:11:39.884Z,10.40
2023-02-03T00:14:10.597Z,10.40
2023-02-03T00:16:40.962Z,10.30
2023-02-03T00:19:11.888Z,10.30
2023-02-03T00:21:45.081Z,10.40
2023-02-03T00:24:15.446Z,10.40
2023-02-03T00:26:47.257Z,10.30
2023-02-03T00:29:18.796Z,10.30
2023-02-03T00:31:49.184Z,10.30
2023-02-03T00:34:20.668Z,10.30
2023-02-03T00:36:53.764Z,10.40
2023-02-03T00:39:24.205Z,10.30
2023-02-03T00:41:55.155Z,10.30
2023-02-03T00:44:26.281Z,10.30
2023-02-03T00:46:56.599Z,10.30
2023-02-03T00:49:27.601Z,10.30
2023-02-03T00:52:01.673Z,10.30
2023-02-03T00:54:33.592Z,10.40
2023-02-03T00:57:04.803Z,10.30
2023-02-03T00:59:36.077Z,10.40
2023-02-03T01:02:06.480Z,10.40
2023-02-03T01:04:36.850Z,10.30
2023-02-03T01:07:11.836Z,10.30
2023-02-03T01:09:42.705Z,10.30
2023-02-03T01:12:14.836Z,10.30
2023-02-03T01:14:45.823Z,10.30
2023-02-03T01:17:16.306Z,10.30
2023-02-03T01:19:46.556Z,10.30
2023-02-03T01:22:20.222Z,10.40
2023-02-03T01:24:50.531Z,10.30
2023-02-03T01:27:21.731Z,10.30
2023-02-03T01:29:52.051Z,10.30
2023-02-03T01:32:23.281Z,10.30
2023-02-03T01:34:53.830Z,10.30
2023-02-03T01:37:27.523Z,10.30
2023-02-03T01:39:57.968Z,10.30
2023-02-03T01:42:28.292Z,10.30
2023-02-03T01:44:58.805Z,10.30
2023-02-03T01:47:33.964Z,10.30
2023-02-03T01:50:14.685Z,10.30
2023-02-03T01:52:53.753Z,10.30
2023-02-03T01:55:28.458Z,10.30
2023-02-03T01:58:05.987Z,10.30
2023-02-03T02:00:36.760Z,10.30
2023-02-03T02:03:08.978Z,10.30
2023-02-03T02:05:44.677Z,10.30
2023-02-03T02:08:23.128Z,10.30
2023-02-03T02:10:54.249Z,10.30
2023-02-03T02:13:26.581Z,10.40
2023-02-03T02:16:03.052Z,10.40
2023-02-03T02:18:59.647Z,10.20
2023-02-03T02:21:48.536Z,10.30
2023-02-03T02:25:07.226Z,10.30
2023-02-03T02:28:13.179Z,10.40
2023-02-03T02:31:09.939Z,10.40
2023-02-03T02:33:45.890Z,10.30
2023-02-03T02:36:27.716Z,10.40
2023-02-03T02:39:08.937Z,10.40
2023-02-03T02:41:46.054Z,10.40
2023-02-03T02:44:22.438Z,10.40
2023-02-03T02:46:56.871Z,10.40
2023-02-03T02:49:36.848Z,10.40
2023-02-03T02:52:12.191Z,10.30
2023-02-03T02:54:49.526Z,10.40
2023-02-03T02:57:23.418Z,10.30
2023-02-03T02:59:54.929Z,10.30
2023-02-03T03:02:25.842Z,10.30
2023-02-03T03:04:59.023Z,10.30
2023-02-03T03:07:33.495Z,10.30
2023-02-03T03:10:08.629Z,10.30
2023-02-03T03:12:46.211Z,10.40
2023-02-03T03:15:23.359Z,10.30
2023-02-03T03:17:59.558Z,10.30
2023-02-03T03:20:39.065Z,10.40
2023-02-03T03:23:14.958Z,10.40
2023-02-03T03:25:49.995Z,10.30
2023-02-03T03:28:27.932Z,10.40
2023-02-03T03:30:58.953Z,10.30
2023-02-03T03:33:30.717Z,10.40
2023-02-03T03:36:11.638Z,10.40
2023-02-03T03:38:46.347Z,10.40
2023-02-03T03:41:20.281Z,10.40
2023-02-03T03:43:53.821Z,10.40
2023-02-03T03:46:28.982Z,10.40
2023-02-03T03:49:02.623Z,10.40
2023-02-03T03:51:42.392Z,10.40
2023-02-03T03:54:16.687Z,10.40
2023-02-03T03:56:53.456Z,10.40
2023-02-03T03:59:25.894Z,10.40
2023-02-03T04:01:59.125Z,10.40
2023-02-03T04:04:30.602Z,10.40
2023-02-03T04:07:03.647Z,10.30
2023-02-03T04:09:37.238Z,10.40
2023-02-03T04:12:11.139Z,10.40
2023-02-03T04:14:42.334Z,10.40
2023-02-03T04:17:13.277Z,10.30
2023-02-03T04:19:45.493Z,10.40
2023-02-03T04:22:20.295Z,10.40
2023-02-03T04:24:50.970Z,10.40
2023-02-03T04:27:21.441Z,10.40
2023-02-03T04:29:51.739Z,10.40
2023-02-03T04:32:22.359Z,10.40
2023-02-03T04:34:53.678Z,10.30
2023-02-03T04:37:27.000Z,10.30
2023-02-03T04:39:58.305Z,10.40
2023-02-03T04:42:30.996Z,10.40
2023-02-03T04:45:03.673Z,10.40
2023-02-03T04:47:34.312Z,10.30
2023-02-03T04:50:05.067Z,10.30
2023-02-03T04:52:42.911Z,10.40
2023-02-03T04:55:13.554Z,10.30
2023-02-03T04:57:43.837Z,10.40
2023-02-03T05:00:17.663Z,10.40
2023-02-03T05:02:48.184Z,10.30
2023-02-03T05:05:18.979Z,10.40
2023-02-03T05:07:53.365Z,10.30
2023-02-03T05:10:23.858Z,10.40
2023-02-03T05:12:54.307Z,10.40
2023-02-03T05:15:26.989Z,10.40
2023-02-03T05:17:58.414Z,10.40
2023-02-03T05:20:29.249Z,10.30
2023-02-03T05:23:05.363Z,10.30
2023-02-03T05:25:36.071Z,10.30
2023-02-03T05:28:06.923Z,10.30
2023-02-03T05:30:37.246Z,10.30
2023-02-03T05:33:09.604Z,10.30
2023-02-03T05:35:40.440Z,10.30
2023-02-03T05:38:13.460Z,10.30
2023-02-03T05:40:57.126Z,10.30
2023-02-03T05:43:27.864Z,10.30
2023-02-03T05:45:58.459Z,10.30
2023-02-03T05:48:29.482Z,10.30
2023-02-03T05:51:00.012Z,10.30
2023-02-03T05:53:33.120Z,10.30
2023-02-03T05:56:03.513Z,10.30
2023-02-03T05:58:36.308Z,10.30
2023-02-03T06:01:07.207Z,10.30
2023-02-03T06:03:37.602Z,10.30
2023-02-03T06:06:08.586Z,10.30
2023-02-03T06:08:43.306Z,10.30
2023-02-03T06:11:14.703Z,10.30
2023-02-03T06:13:45.055Z,10.30
2023-02-03T06:16:15.521Z,10.30
2023-02-03T06:18:46.087Z,10.30
2023-02-03T06:21:18.126Z,10.30
2023-02-03T06:23:51.676Z,10.30
2023-02-03T06:26:22.040Z,10.30
2023-02-03T06:28:53.551Z,10.40
2023-02-03T06:31:24.315Z,10.30
2023-02-03T06:33:54.767Z,10.30
2023-02-03T06:36:26.598Z,10.40
2023-02-03T06:39:00.127Z,10.30
2023-02-03T06:41:30.902Z,10.30
2023-02-03T06:44:02.595Z,10.30
2023-02-03T06:46:34.172Z,10.30
2023-02-03T06:49:04.838Z,10.30
2023-02-03T06:51:36.167Z,10.30
2023-02-03T06:54:09.585Z,10.30
2023-02-03T06:56:39.877Z,10.30
2023-02-03T06:59:12.437Z,10.30
2023-02-03T07:01:43.272Z,10.30
2023-02-03T07:04:13.785Z,10.30
2023-02-03T07:06:44.797Z,10.30
2023-02-03T07:09:18.426Z,10.30
2023-02-03T07:11:48.794Z,10.30
2023-02-03T07:14:19.311Z,10.30
2023-02-03T07:16:49.991Z,10.30
2023-02-03T07:19:20.412Z,10.30
2023-02-03T07:21:50.924Z,10.20
2023-02-03T07:24:23.928Z,10.20
2023-02-03T07:26:54.307Z,10.30
2023-02-03T07:29:24.691Z,10.20
2023-02-03T07:31:55.092Z,10.20
2023-02-03T07:34:25.527Z,10.20
2023-02-03T07:36:55.862Z,10.20
2023-02-03T07:39:28.946Z,10.20
2023-02-03T07:41:59.251Z,10.20
2023-02-03T07:44:31.713Z,10.20
2023-02-03T07:47:02.031Z,10.20
2023-02-03T07:49:32.572Z,10.30
2023-02-03T07:52:02.873Z,10.30
2023-02-03T07:54:38.119Z,10.30
2023-02-03T07:57:08.481Z,10.30
2023-02-03T07:59:38.853Z,10.30
2023-02-03T08:02:11.422Z,10.20
2023-02-03T08:04:41.959Z,10.20
2023-02-03T08:07:12.355Z,10.20
2023-02-03T08:09:45.991Z,10.30
2023-02-03T08:12:16.380Z,10.30
2023-02-03T08:14:46.802Z,10.30
2023-02-03T08:17:17.111Z,10.30
2023-02-03T08:19:47.511Z,10.30
2023-02-03T08:22:19.476Z,10.30
2023-02-03T08:24:52.633Z,10.30
2023-02-03T08:27:25.825Z,10.30
2023-02-03T08:29:56.314Z,10.30
2023-02-03T08:32:27.143Z,10.30
2023-02-03T08:34:57.939Z,10.30
2023-02-03T08:37:32.668Z,10.30
2023-02-03T08:40:05.860Z,10.30
2023-02-03T08:42:36.344Z,10.40
2023-02-03T08:45:07.162Z,10.40
2023-02-03T08:47:38.300Z,10.40
2023-02-03T08:50:10.706Z,10.40
2023-02-03T08:52:41.150Z,10.40
2023-02-03T08:55:14.701Z,10.40
2023-02-03T08:57:45.052Z,10.40
2023-02-03T09:00:17.033Z,10.40
2023-02-03T09:02:47.419Z,10.40
2023-02-03T09:05:18.681Z,10.40
2023-02-03T09:07:49.240Z,10.40
2023-02-03T09:10:22.557Z,10.40
2023-02-03T09:12:52.957Z,10.50
2023-02-03T09:15:23.412Z,10.40
2023-02-03T09:17:54.206Z,10.40
2023-02-03T09:20:26.907Z,10.40
2023-02-03T09:22:59.679Z,10.40
2023-02-03T09:25:32.761Z,10.40
2023-02-03T09:28:05.161Z,10.40
2023-02-03T09:30:35.679Z,10.40
2023-02-03T09:33:06.101Z,10.40
2023-02-03T09:35:36.563Z,10.40
2023-02-03T09:38:06.989Z,10.40
2023-02-03T09:40:41.849Z,10.40
2023-02-03T09:43:32.640Z,10.40
2023-02-03T09:46:10.038Z,10.50
2023-02-03T09:48:45.344Z,10.50
2023-02-03T09:51:23.165Z,10.50
2023-02-03T09:54:00.346Z,10.50
2023-02-03T09:56:36.433Z,10.50
2023-02-03T09:59:07.359Z,10.50
2023-02-03T10:01:45.295Z,10.50
2023-02-03T10:04:28.104Z,10.50
2023-02-03T10:07:09.795Z,10.50
2023-02-03T10:09:53.434Z,10.60
2023-02-03T10:12:55.771Z,10.60
2023-02-03T10:15:48.198Z,10.60
2023-02-03T10:18:24.054Z,10.60
2023-02-03T10:20:58.491Z,10.70
2023-02-03T10:23:34.703Z,10.70
2023-02-03T10:26:08.525Z,10.70
2023-02-03T10:28:47.143Z,10.60
2023-02-03T10:31:19.984Z,10.70
2023-02-03T10:33:51.228Z,10.80
2023-02-03T10:36:24.145Z,10.70
2023-02-03T10:39:02.839Z,10.70
2023-02-03T10:41:34.752Z,10.70
2023-02-03T10:44:10.560Z,10.70
2023-02-03T10:46:44.102Z,10.80
2023-02-03T10:49:16.634Z,10.80
2023-02-03T10:51:52.720Z,10.80
2023-02-03T10:54:34.984Z,10.80
2023-02-03T10:57:10.363Z,10.80
2023-02-03T10:59:46.450Z,10.70
2023-02-03T11:02:26.165Z,10.80
2023-02-03T11:05:11.963Z,10.70
2023-02-03T11:07:42.389Z,10.70
2023-02-03T11:10:37.901Z,10.70
2023-02-03T11:13:19.529Z,10.70
2023-02-03T11:16:02.268Z,10.70
2023-02-03T11:18:41.353Z,10.70
2023-02-03T11:21:15.063Z,10.80
2023-02-03T11:24:08.279Z,10.70
2023-02-03T11:26:44.560Z,10.70
2023-02-03T11:29:23.771Z,10.80
2023-02-03T11:31:59.610Z,10.80
2023-02-03T11:34:33.659Z,10.80
2023-02-03T11:37:27.466Z,10.80
2023-02-03T11:39:59.767Z,10.80
2023-02-03T11:42:30.254Z,10.90
2023-02-03T11:45:17.363Z,10.80
2023-02-03T11:47:54.193Z,10.90
2023-02-03T11:50:33.616Z,10.80
2023-02-03T11:53:15.129Z,10.80
2023-02-03T11:56:03.135Z,10.80
2023-02-03T11:58:57.829Z,10.80
2023-02-03T12:01:52.538Z,10.80
2023-02-03T12:04:36.792Z,10.80
2023-02-03T12:07:35.451Z,10.80
2023-02-03T12:10:12.653Z,10.90
2023-02-03T12:12:59.120Z,10.90
2023-02-03T12:15:57.179Z,10.90
2023-02-03T12:18:42.138Z,10.90
2023-02-03T12:21:34.194Z,10.90
2023-02-03T12:24:11.085Z,10.90
2023-02-03T12:26:49.304Z,10.90
2023-02-03T12:29:24.172Z,10.90
2023-02-03T12:32:02.525Z,10.90
2023-02-03T12:34:37.677Z,10.90
2023-02-03T12:37:15.191Z,10.90
2023-02-03T12:39:49.187Z,10.90
2023-02-03T12:42:24.248Z,11.00
2023-02-03T12:44:57.133Z,11.00
2023-02-03T12:47:33.367Z,11.00
2023-02-03T12:50:09.379Z,11.00
2023-02-03T12:52:47.050Z,11.00
2023-02-03T12:55:28.393Z,11.00
2023-02-03T12:58:03.529Z,11.00
2023-02-03T13:00:41.617Z,11.00
2023-02-03T13:03:22.560Z,11.10
2023-02-03T13:05:57.814Z,11.00
2023-02-03T13:08:37.053Z,11.10
2023-02-03T13:11:23.831Z,11.10
2023-02-03T13:13:58.651Z,11.10
2023-02-03T13:16:36.374Z,11.10
2023-02-03T13:19:13.324Z,11.10
2023-02-03T13:21:44.294Z,11.10
2023-02-03T13:24:17.540Z,11.20
2023-02-03T13:27:03.169Z,11.20
2023-02-03T13:29:53.922Z,11.20
2023-02-03T13:32:45.290Z,11.30
2023-02-03T13:35:34.851Z,11.20
2023-02-03T13:38:40.780Z,11.20
2023-02-03T13:41:22.975Z,11.20
2023-02-03T13:43:56.660Z,11.20
2023-02-03T13:46:29.465Z,11.30
2023-02-03T13:49:02.287Z,11.20
2023-02-03T13:51:36.660Z,11.20
2023-02-03T13:54:10.952Z,11.20
2023-02-03T13:56:45.305Z,11.30
2023-02-03T13:59:33.248Z,11.20
2023-02-03T14:02:42.367Z,11.20
2023-02-03T14:05:48.978Z,11.20
2023-02-03T14:08:54.896Z,11.30
2023-02-03T14:11:43.643Z,11.30
2023-02-03T14:14:45.703Z,11.20
2023-02-03T14:18:00.311Z,11.30
2023-02-03T14:20:57.838Z,11.20
2023-02-03T14:23:42.945Z,11.30
2023-02-03T14:26:35.646Z,11.20
2023-02-03T14:29:07.451Z,11.20
2023-02-03T14:32:00.419Z,11.30
2023-02-03T14:34:39.701Z,11.30
2023-02-03T14:37:22.977Z,11.30
2023-02-03T14:40:28.994Z,11.20
2023-02-03T14:43:27.352Z,11.30
2023-02-03T14:46:05.438Z,11.30
2023-02-03T14:49:00.737Z,11.30
2023-02-03T14:51:45.983Z,11.30
2023-02-03T14:54:37.942Z,11.30
2023-02-03T14:57:24.974Z,11.30
2023-02-03T15:00:01.502Z,11.30
2023-02-03T15:02:33.752Z,11.30
2023-02-03T15:05:40.558Z,11.30
2023-02-03T15:08:36.738Z,11.30
2023-02-03T15:11:31.858Z,11.30
2023-02-03T15:14:19.673Z,11.30
2023-02-03T15:16:56.235Z,11.30
2023-02-03T15:19:29.552Z,11.30
2023-02-03T15:21:59.963Z,11.30
2023-02-03T15:24:38.551Z,11.30
2023-02-03T15:27:24.889Z,11.30
2023-02-03T15:29:59.099Z,11.30
2023-02-03T15:32:36.165Z,11.30
2023-02-03T15:35:09.714Z,11.30
2023-02-03T15:37:47.906Z,11.30
2023-02-03T15:40:21.909Z,11.30
2023-02-03T15:42:58.845Z,11.30
2023-02-03T15:45:35.495Z,11.30
2023-02-03T15:48:09.328Z,11.30
2023-02-03T15:50:45.285Z,11.30
2023-02-03T15:53:21.648Z,11.30
2023-02-03T15:55:56.249Z,11.30
2023-02-03T15:58:31.427Z,11.30
2023-02-03T16:01:04.862Z,11.40
2023-02-03T16:03:40.389Z,11.30
2023-02-03T16:06:13.068Z,11.30
2023-02-03T16:08:48.863Z,11.20
2023-02-03T16:11:34.189Z,11.20
2023-02-03T16:14:09.681Z,11.20
2023-02-03T16:17:02.492Z,11.20
2023-02-03T16:19:38.676Z,11.20
2023-02-03T16:22:32.463Z,11.20
2023-02-03T16:25:17.282Z,11.20
2023-02-03T16:27:48.812Z,11.20
2023-02-03T16:30:38.944Z,11.20
2023-02-03T16:33:33.338Z,11.10
2023-02-03T16:36:25.211Z,11.30
2023-02-03T16:39:07.930Z,11.20
2023-02-03T16:41:51.803Z,11.20
2023-02-03T16:44:34.512Z,11.10
2023-02-03T16:47:30.916Z,11.20
2023-02-03T16:50:13.605Z,11.10
2023-02-03T16:52:44.743Z,11.10
2023-02-03T16:55:15.135Z,11.10
2023-02-03T16:57:45.432Z,11.10
2023-02-03T17:00:17.822Z,11.10
2023-02-03T17:02:50.765Z,11.10
2023-02-03T17:05:21.775Z,11.10
2023-02-03T17:07:52.213Z,11.10
2023-02-03T17:10:22.725Z,11.10
2023-02-03T17:12:54.954Z,11.10
2023-02-03T17:15:25.465Z,11.10
2023-02-03T17:17:58.401Z,11.10
2023-02-03T17:20:29.135Z,11.10
2023-02-03T17:22:59.501Z,11.00
2023-02-03T17:25:30.238Z,11.10
2023-02-03T17:28:00.786Z,11.10
2023-02-03T17:30:34.133Z,11.10
2023-02-03T17:33:12.229Z,11.10
2023-02-03T17:35:44.452Z,11.10
2023-02-03T17:38:16.478Z,11.10
2023-02-03T17:54:36.185Z,11.00
2023-02-03T17:57:06.670Z,11.00
2023-02-03T17:59:37.953Z,11.00
2023-02-03T18:02:08.386Z,11.00
2023-02-03T18:04:42.367Z,11.10
2023-02-03T18:07:12.684Z,11.00
2023-02-03T18:09:43.192Z,11.00
2023-02-03T18:12:13.632Z,11.00
2023-02-03T18:14:43.959Z,11.00
2023-02-03T18:17:14.273Z,11.00
2023-02-03T18:19:54.846Z,11.10
2023-02-03T18:22:26.169Z,11.00
2023-02-03T18:24:57.037Z,11.00
2023-02-03T18:27:27.310Z,11.10
2023-02-03T18:29:57.680Z,11.10
2023-02-03T18:32:28.124Z,11.10
2023-02-03T18:35:01.115Z,11.10
2023-02-03T18:37:32.189Z,11.00
2023-02-03T18:40:02.485Z,11.10
2023-02-03T18:42:32.807Z,11.10
2023-02-03T18:45:06.423Z,11.10
2023-02-03T18:47:37.666Z,11.10
2023-02-03T18:50:11.119Z,11.10
2023-02-03T18:52:41.481Z,11.10
2023-02-03T18:55:12.946Z,11.10
2023-02-03T18:57:43.304Z,11.10
2023-02-03T19:00:15.774Z,11.10
2023-02-03T19:02:46.154Z,11.00
2023-02-03T19:05:19.583Z,11.10
2023-02-03T19:07:49.924Z,11.10
2023-02-03T19:10:20.937Z,11.10
2023-02-03T19:12:51.338Z,11.10
2023-02-03T19:15:22.090Z,11.10
2023-02-03T19:17:52.434Z,11.10
2023-02-03T19:20:25.466Z,11.10
2023-02-03T19:22:56.895Z,11.10
2023-02-03T19:25:27.273Z,11.10
2023-02-03T19:27:57.665Z,11.10
2023-02-03T19:30:28.504Z,11.10
2023-02-03T19:32:59.629Z,11.10
2023-02-03T19:35:33.584Z,11.10
2023-02-03T19:38:04.053Z,11.10
2023-02-03T19:40:34.612Z,11.10
2023-02-03T19:43:05.216Z,11.10
2023-02-03T19:45:36.272Z,11.10
2023-02-03T19:48:06.692Z,11.10
2023-02-03T19:50:40.991Z,11.10
2023-02-03T19:53:11.339Z,11.10
2023-02-03T19:55:41.684Z,11.20
2023-02-03T19:58:12.242Z,11.20
2023-02-03T20:00:43.058Z,11.10
2023-02-03T20:03:13.756Z,11.10
2023-02-03T20:05:46.826Z,11.10
2023-02-03T20:08:17.369Z,11.10
2023-02-03T20:10:47.950Z,11.10
2023-02-03T20:13:18.756Z,11.10
2023-02-03T20:15:49.165Z,11.10
2023-02-03T20:18:19.518Z,11.10
2023-02-03T20:20:55.866Z,11.10
2023-02-03T20:23:26.880Z,11.10
2023-02-03T20:25:57.708Z,11.10
2023-02-03T20:28:30.270Z,11.10
2023-02-03T20:31:03.134Z,11.10
2023-02-03T20:33:34.122Z,11.10
2023-02-03T20:36:07.608Z,11.10
2023-02-03T20:38:37.930Z,11.10
2023-02-03T20:41:11.865Z,11.00
2023-02-03T20:43:42.234Z,11.00
2023-02-03T20:46:14.634Z,11.00
2023-02-03T20:48:45.633Z,11.00
2023-02-03T20:51:22.437Z,10.90
2023-02-03T20:53:53.006Z,11.00
2023-02-03T20:56:25.555Z,11.00
2023-02-03T20:58:56.629Z,11.00
2023-02-03T21:01:26.912Z,11.00
2023-02-03T21:04:11.667Z,10.90
2023-02-03T21:06:44.821Z,10.90
2023-02-03T21:09:18.610Z,11.00
2023-02-03T21:11:48.951Z,11.00
2023-02-03T21:14:26.688Z,11.00
2023-02-03T21:16:57.279Z,11.00
2023-02-03T21:19:32.532Z,10.90
2023-02-03T21:22:18.023Z,10.80
2023-02-03T21:24:54.068Z,10.90
2023-02-03T21:27:29.922Z,10.90
2023-02-03T21:30:01.384Z,10.80
2023-02-03T21:32:40.085Z,10.80
2023-02-03T21:35:28.011Z,10.80
2023-02-03T21:38:04.731Z,10.80
2023-02-03T21:40:36.889Z,10.80
2023-02-03T21:43:15.651Z,10.80
2023-02-03T21:45:47.642Z,10.80
2023-02-03T21:48:33.124Z,10.80
2023-02-03T21:51:05.866Z,10.80
2023-02-03T21:53:41.982Z,10.80
2023-02-03T21:56:31.470Z,10.80
2023-02-03T21:59:01.891Z,10.80
2023-02-03T22:01:39.500Z,10.80
2023-02-03T22:04:10.361Z,10.70
2023-02-03T22:06:47.326Z,10.70
2023-02-03T22:09:21.845Z,10.80
2023-02-03T22:11:52.347Z,10.70
2023-02-03T22:14:24.022Z,10.80
2023-02-03T22:16:54.535Z,10.70
2023-02-03T22:19:24.868Z,10.70
2023-02-03T22:21:55.907Z,10.70
2023-02-03T22:24:28.994Z,10.70
2023-02-03T22:27:00.421Z,10.80
2023-02-03T22:29:31.459Z,10.80
2023-02-03T22:32:01.957Z,10.70
2023-02-03T22:34:32.579Z,10.80
2023-02-03T22:37:02.981Z,10.80
2023-02-03T22:39:36.091Z,10.70
2023-02-03T22:42:06.815Z,10.70
2023-02-03T22:44:37.316Z,10.80
2023-02-03T22:47:07.733Z,10.70
2023-02-03T22:49:38.647Z,10.70
2023-02-03T22:52:09.095Z,10.80
2023-02-03T22:54:43.406Z,10.70
2023-02-03T22:57:14.451Z,10.80
2023-02-03T22:59:45.299Z,10.80
2023-02-03T23:02:16.838Z,10.80
2023-02-03T23:04:47.516Z,10.80
2023-02-03T23:07:18.033Z,10.70
2023-02-03T23:09:51.735Z,10.80
2023-02-03T23:12:22.220Z,10.80
2023-02-03T23:14:52.730Z,10.80
2023-02-03T23:17:23.107Z,10.80
2023-02-03T23:19:54.589Z,10.80
2023-02-03T23:22:25.334Z,10.80
2023-02-03T23:24:58.296Z,10.80
2023-02-03T23:27:28.732Z,10.80
2023-02-03T23:30:00.648Z,10.80
2023-02-03T23:32:31.142Z,10.80
2023-02-03T23:35:13.792Z,10.80
2023-02-03T23:37:44.788Z,10.80
2023-02-03T23:40:19.501Z,10.80
2023-02-03T23:42:50.281Z,10.90
2023-02-03T23:45:20.864Z,10.80
2023-02-03T23:47:51.165Z,10.80
2023-02-03T23:50:22.085Z,10.80
2023-02-03T23:52:52.459Z,10.80
2023-02-03T23:55:25.476Z,10.80
2023-02-03T23:57:56.064Z,10.90
